aviador You're here:

KVAD Decoded Metar

VALDOSTA in GA, USA
Report Time2018-01-18 00:56:00
UTC Time2018-01-18 01:45:43
Flight Rules vfr VFR
Wind320° at 15 kt
W.Decomp.*RWY 36: 12.0 kt HW 9 kt LCW
W.Rank320° ranks 25
Current wind is above 320° avg. (7.1)
Visibility9999 m
Phenomena:N/A
Clouds:N/A
Expected CloudBase > 4,000 ft AGL from Temp-Dew spread
CeilingNone
Temp-2°C (ISA -17)
Dew Point-12°C (47% RH)
AAT-10.6°C
QNH1028 hPa
Density Alt-2,270 ft
Elevation233 ft
Report Wrong Elevation
Raw Report
KVAD 180056Z AUTO 32015KT 10SM CLR M02/M12 A3037 RMK AO2 SLP289
T10161120 $=

Extra information for KVAD:More info

Metar Taf Metar & Taf Last 4 Metars F.Rules Stats Wind Profile Meteogram Temp Stats Airport Information Weather charts Add Link Nearby VenuesMetar ALERT Operation Metar Decoded Social comments

AIRNAV info for KVAD